Time;durP1;ratioP1;P1;durP2;ratioP2;P2;SDS_P1;SDS_P2;PMS_P1;PMS_P2;Temp;Humidity;BMP_temperature;BMP_pressure;BME280_temperature;BME280_humidity;BME280_pressure;Samples;Min_cycle;Max_cycle;Signal;HPM_P1;HPM_P2
2023/06/02 00:01:13;;;;;;;7.20;0.90;;;12.70;91.40;;;;;;4894789;29;20116;-67
2023/06/02 00:03:40;;;;;;;7.72;1.00;;;12.70;91.50;;;;;;4900124;29;20503;-67
2023/06/02 00:06:09;;;;;;;8.60;1.17;;;12.70;91.50;;;;;;4901012;29;20039;-67
2023/06/02 00:08:40;;;;;;;6.20;0.90;;;12.80;91.50;;;;;;4883977;29;20055;-67
2023/06/02 00:11:08;;;;;;;9.10;1.85;;;12.80;91.50;;;;;;4877928;29;20518;-67
2023/06/02 00:13:34;;;;;;;7.38;1.20;;;12.80;91.60;;;;;;4900523;29;20054;-68
2023/06/02 00:16:02;;;;;;;6.82;1.55;;;12.80;91.60;;;;;;4900592;29;20039;-67
2023/06/02 00:18:33;;;;;;;10.05;1.23;;;12.80;91.60;;;;;;4887261;29;20055;-67
2023/06/02 00:21:04;;;;;;;10.68;1.77;;;12.80;91.60;;;;;;4895664;29;20043;-67
2023/06/02 00:23:31;;;;;;;9.15;1.45;;;12.80;91.80;;;;;;4902151;29;20390;-67
2023/06/02 00:25:57;;;;;;;9.55;1.70;;;12.70;91.70;;;;;;4867007;29;20051;-67
2023/06/02 00:28:24;;;;;;;8.45;1.25;;;12.80;92.00;;;;;;4882648;29;20043;-67
2023/06/02 00:30:51;;;;;;;7.53;1.60;;;12.80;92.00;;;;;;4890277;29;20490;-67
2023/06/02 00:33:18;;;;;;;5.20;0.90;;;12.70;92.00;;;;;;4899868;29;20027;-67
2023/06/02 00:35:45;;;;;;;11.27;1.50;;;12.80;92.00;;;;;;4899500;29;20047;-68
2023/06/02 00:38:12;;;;;;;7.50;1.02;;;12.70;92.00;;;;;;4884401;29;20043;-68
2023/06/02 00:40:39;;;;;;;8.13;0.90;;;12.80;92.00;;;;;;4899249;29;20035;-67
2023/06/02 00:43:05;;;;;;;10.02;1.73;;;12.70;92.00;;;;;;4886390;29;20044;-68
2023/06/02 00:45:32;;;;;;;7.13;1.38;;;12.80;92.00;;;;;;4884217;29;21405;-67
2023/06/02 00:48:01;;;;;;;5.75;1.17;;;12.70;92.00;;;;;;4899025;28;20043;-68
2023/06/02 00:50:28;;;;;;;5.18;1.13;;;12.60;91.90;;;;;;4860982;29;20043;-68
2023/06/02 00:52:57;;;;;;;7.78;1.35;;;12.60;92.00;;;;;;4884237;29;20024;-67
2023/06/02 00:55:24;;;;;;;5.55;1.10;;;12.60;92.10;;;;;;4885016;29;20039;-68
2023/06/02 00:57:51;;;;;;;9.57;1.30;;;12.50;92.10;;;;;;4897212;29;20039;-67
2023/06/02 01:00:21;;;;;;;6.88;1.00;;;12.50;92.00;;;;;;4894724;29;20032;-67
2023/06/02 01:02:49;;;;;;;8.98;1.33;;;12.50;92.00;;;;;;4906744;28;20412;-67
2023/06/02 01:05:16;;;;;;;5.22;1.02;;;12.60;92.10;;;;;;4905325;29;20028;-67
2023/06/02 01:07:47;;;;;;;6.93;1.00;;;12.60;92.10;;;;;;4885633;29;20047;-68
2023/06/02 01:10:15;;;;;;;8.48;1.02;;;12.60;92.10;;;;;;4895413;29;20058;-67
2023/06/02 01:12:43;;;;;;;5.72;1.45;;;12.60;92.10;;;;;;4903284;29;20039;-68
2023/06/02 01:15:10;;;;;;;6.40;1.10;;;12.50;92.00;;;;;;4900994;28;20054;-67
2023/06/02 01:17:38;;;;;;;8.45;2.00;;;12.50;92.00;;;;;;4887750;29;20035;-68
2023/06/02 01:20:05;;;;;;;8.82;1.55;;;12.50;92.00;;;;;;4898302;29;20125;-67
2023/06/02 01:22:53;;;;;;;7.45;1.25;;;12.50;92.10;;;;;;4892551;29;20031;-68
2023/06/02 01:25:25;;;;;;;4.35;1.00;;;12.40;92.00;;;;;;4891351;29;20051;-67
2023/06/02 01:27:52;;;;;;;9.00;1.45;;;12.40;92.00;;;;;;4887740;29;20063;-67
2023/06/02 01:30:19;;;;;;;7.85;1.30;;;12.40;92.00;;;;;;4896186;28;20051;-68
2023/06/02 01:33:01;;;;;;;7.53;1.05;;;12.40;92.00;;;;;;4886785;29;20378;-67
2023/06/02 01:35:31;;;;;;;9.60;1.75;;;12.40;92.00;;;;;;4900870;29;20882;-68
2023/06/02 01:38:00;;;;;;;9.70;1.55;;;12.30;92.10;;;;;;4885340;29;20720;-67
2023/06/02 01:40:28;;;;;;;8.52;1.63;;;12.20;92.20;;;;;;4864020;29;20605;-68
2023/06/02 01:42:57;;;;;;;10.52;2.15;;;12.20;92.30;;;;;;4889983;29;20500;-67
2023/06/02 01:45:27;;;;;;;6.97;1.10;;;12.20;92.30;;;;;;4891270;29;20036;-67
2023/06/02 01:48:03;;;;;;;7.78;1.83;;;12.20;92.30;;;;;;4889492;29;20031;-67
2023/06/02 01:50:30;;;;;;;5.68;1.02;;;12.20;92.30;;;;;;4894579;29;20515;-67
2023/06/02 01:52:56;;;;;;;4.05;1.00;;;12.20;92.40;;;;;;4900204;29;20040;-67
2023/06/02 01:55:22;;;;;;;8.52;1.20;;;12.20;92.50;;;;;;4903451;29;20042;-67
2023/06/02 01:57:49;;;;;;;5.20;1.08;;;12.20;92.50;;;;;;4901146;29;20129;-67
2023/06/02 02:00:17;;;;;;;5.68;1.10;;;12.10;92.50;;;;;;4893518;29;20047;-67
2023/06/02 02:02:43;;;;;;;6.32;1.10;;;12.10;92.60;;;;;;4902553;29;20036;-67
2023/06/02 02:05:10;;;;;;;6.70;0.88;;;12.10;92.60;;;;;;4907754;29;20492;-67
2023/06/02 02:07:41;;;;;;;6.32;1.25;;;12.00;92.60;;;;;;4907756;29;20054;-67
2023/06/02 02:10:09;;;;;;;6.80;1.77;;;12.10;92.70;;;;;;4865479;29;20040;-67
2023/06/02 02:12:36;;;;;;;6.80;1.55;;;12.00;92.70;;;;;;4899477;29;20047;-67
2023/06/02 02:15:04;;;;;;;6.82;1.27;;;12.00;92.70;;;;;;4883766;29;20050;-67
2023/06/02 02:17:31;;;;;;;11.65;1.33;;;11.90;92.80;;;;;;4902287;29;20034;-67
2023/06/02 02:19:58;;;;;;;9.50;1.15;;;11.90;92.90;;;;;;4890480;29;20040;-67
2023/06/02 02:22:24;;;;;;;4.47;1.02;;;11.90;93.00;;;;;;4902048;29;20028;-68
2023/06/02 02:24:51;;;;;;;8.98;1.33;;;11.90;93.00;;;;;;4904664;29;20562;-67
2023/06/02 02:27:17;;;;;;;9.90;2.03;;;11.80;93.10;;;;;;4906628;29;20316;-67
2023/06/02 02:29:44;;;;;;;6.00;1.08;;;11.80;93.10;;;;;;4883115;29;20810;-67
2023/06/02 02:32:11;;;;;;;4.28;1.13;;;11.80;93.20;;;;;;4874744;29;20035;-68
2023/06/02 02:34:38;;;;;;;5.95;0.98;;;11.80;93.20;;;;;;4900042;29;20499;-67
2023/06/02 02:37:06;;;;;;;4.55;0.98;;;11.80;93.20;;;;;;4885324;29;20494;-67
2023/06/02 02:39:33;;;;;;;8.27;1.27;;;11.80;93.30;;;;;;4879797;29;20344;-67
2023/06/02 02:42:00;;;;;;;4.03;0.88;;;11.80;93.40;;;;;;4882413;29;20048;-67
2023/06/02 02:44:27;;;;;;;6.80;0.73;;;11.80;93.60;;;;;;4900725;29;20071;-68
2023/06/02 02:46:55;;;;;;;4.07;0.85;;;11.80;93.50;;;;;;4872270;29;20035;-67
2023/06/02 02:49:21;;;;;;;6.78;0.80;;;11.80;93.50;;;;;;4903964;29;20122;-67
2023/06/02 02:51:48;;;;;;;5.45;0.90;;;11.90;93.50;;;;;;4869505;29;20054;-67
2023/06/02 02:54:15;;;;;;;6.40;0.77;;;11.90;93.50;;;;;;4886693;29;20377;-67
2023/06/02 02:56:41;;;;;;;6.63;0.90;;;11.90;93.50;;;;;;4901613;29;20511;-67
2023/06/02 02:59:08;;;;;;;9.77;1.33;;;11.90;93.50;;;;;;4897350;29;20043;-67
2023/06/02 03:01:34;;;;;;;6.68;0.90;;;11.90;93.60;;;;;;4875866;29;20046;-67
2023/06/02 03:04:02;;;;;;;5.63;1.08;;;11.90;93.70;;;;;;4899801;28;20398;-67
2023/06/02 03:06:31;;;;;;;8.10;1.27;;;11.90;93.80;;;;;;4900794;29;20032;-66
2023/06/02 03:08:59;;;;;;;7.10;1.00;;;11.90;93.90;;;;;;4888377;29;20471;-67
2023/06/02 03:11:26;;;;;;;8.95;1.30;;;11.80;94.00;;;;;;4898507;28;20036;-67
2023/06/02 03:13:53;;;;;;;9.68;1.55;;;11.80;94.00;;;;;;4902770;29;20467;-67
2023/06/02 03:16:21;;;;;;;7.63;1.23;;;11.80;94.00;;;;;;4853202;29;20036;-67
2023/06/02 03:18:47;;;;;;;7.18;1.25;;;11.80;94.10;;;;;;4902128;29;20531;-67
2023/06/02 03:21:14;;;;;;;6.90;1.27;;;11.80;94.10;;;;;;4876462;29;20424;-67
2023/06/02 03:23:41;;;;;;;5.93;1.27;;;11.80;94.20;;;;;;4885095;29;20046;-67
2023/06/02 03:26:08;;;;;;;7.75;1.23;;;11.80;94.30;;;;;;4883865;29;20059;-67
2023/06/02 03:28:34;;;;;;;6.45;1.25;;;11.80;94.30;;;;;;4887111;29;20027;-67
2023/06/02 03:31:02;;;;;;;7.90;1.10;;;11.70;94.30;;;;;;4880270;29;20028;-67
2023/06/02 03:33:28;;;;;;;6.07;0.98;;;11.70;94.30;;;;;;4887954;29;20043;-67
2023/06/02 03:35:56;;;;;;;7.63;0.70;;;11.70;94.40;;;;;;4871241;29;20066;-68
2023/06/02 03:38:23;;;;;;;5.82;0.98;;;11.80;94.50;;;;;;4899070;29;20665;-67
2023/06/02 03:40:49;;;;;;;5.97;1.23;;;11.80;94.40;;;;;;4874567;29;20601;-67
2023/06/02 03:43:15;;;;;;;2.58;0.55;;;11.80;94.40;;;;;;4896936;29;20036;-67
2023/06/02 03:45:43;;;;;;;8.43;1.50;;;11.80;94.30;;;;;;4895559;29;20048;-67
2023/06/02 03:48:09;;;;;;;5.18;1.15;;;11.80;94.30;;;;;;4882635;29;20502;-67
2023/06/02 03:50:38;;;;;;;5.45;1.10;;;11.80;94.30;;;;;;4894688;29;20480;-67
2023/06/02 03:53:05;;;;;;;9.23;1.10;;;11.80;94.30;;;;;;4873244;29;20058;-67
2023/06/02 03:55:32;;;;;;;7.93;0.95;;;11.80;94.30;;;;;;4904880;29;20032;-68
2023/06/02 03:57:58;;;;;;;8.32;1.63;;;11.80;94.30;;;;;;4899713;29;20039;-67
2023/06/02 04:00:25;;;;;;;6.43;1.00;;;11.80;94.30;;;;;;4875971;29;20043;-67
2023/06/02 04:02:53;;;;;;;8.15;1.08;;;11.80;94.30;;;;;;4883562;29;20043;-67
2023/06/02 04:05:20;;;;;;;6.90;1.33;;;11.80;94.30;;;;;;4868437;29;20047;-67
2023/06/02 04:07:48;;;;;;;6.32;1.13;;;11.80;94.30;;;;;;4899440;29;20043;-67
2023/06/02 04:10:14;;;;;;;8.52;0.88;;;11.80;94.30;;;;;;4881506;29;20444;-67
2023/06/02 04:12:41;;;;;;;9.10;1.25;;;11.80;94.40;;;;;;4887565;29;21272;-67
2023/06/02 04:15:08;;;;;;;8.70;1.00;;;11.80;94.40;;;;;;4889499;29;20507;-67
2023/06/02 04:17:36;;;;;;;4.63;0.70;;;11.80;94.40;;;;;;4886878;29;20043;-67
2023/06/02 04:20:03;;;;;;;5.78;0.88;;;11.80;94.40;;;;;;4893340;29;20066;-68
2023/06/02 04:22:31;;;;;;;7.00;1.20;;;11.80;94.40;;;;;;4882088;29;20047;-67
2023/06/02 04:24:58;;;;;;;7.60;0.75;;;11.90;94.50;;;;;;4868787;29;20032;-67
2023/06/02 04:27:24;;;;;;;10.05;1.23;;;11.90;94.50;;;;;;4883094;29;20047;-67
2023/06/02 04:29:51;;;;;;;7.15;1.08;;;11.90;94.50;;;;;;4877600;29;20549;-67
2023/06/02 04:32:18;;;;;;;7.22;1.27;;;12.00;94.60;;;;;;4898557;29;20298;-68
2023/06/02 04:34:46;;;;;;;5.60;1.25;;;12.00;94.90;;;;;;4889536;29;20063;-68
2023/06/02 04:37:13;;;;;;;9.60;1.02;;;12.00;94.60;;;;;;4903984;29;20476;-68
2023/06/02 04:39:39;;;;;;;6.10;0.90;;;12.00;94.70;;;;;;4896715;29;20036;-67
2023/06/02 04:42:06;;;;;;;8.25;0.80;;;12.00;94.80;;;;;;4880740;29;20073;-68
2023/06/02 04:44:32;;;;;;;10.35;1.75;;;12.00;94.80;;;;;;4898197;29;20380;-68
2023/06/02 04:46:59;;;;;;;7.43;1.25;;;12.00;94.90;;;;;;4884657;29;20048;-67
2023/06/02 04:49:26;;;;;;;5.32;1.48;;;12.00;95.00;;;;;;4897083;29;20032;-67
2023/06/02 04:51:55;;;;;;;5.40;1.48;;;12.00;95.00;;;;;;4883275;29;20479;-67
2023/06/02 04:54:22;;;;;;;6.40;1.52;;;12.00;95.00;;;;;;4885869;29;20039;-67
2023/06/02 04:56:48;;;;;;;11.27;1.30;;;12.00;95.00;;;;;;4904803;29;20043;-67
2023/06/02 04:59:17;;;;;;;6.45;1.05;;;12.10;95.10;;;;;;4885902;29;20067;-67
2023/06/02 05:01:44;;;;;;;3.80;0.88;;;12.10;95.00;;;;;;4879874;29;22908;-67
2023/06/02 05:04:10;;;;;;;9.65;1.73;;;12.10;95.00;;;;;;4882130;29;20043;-67
2023/06/02 05:06:37;;;;;;;9.73;1.20;;;12.10;95.00;;;;;;4901163;29;20386;-67
2023/06/02 05:09:03;;;;;;;9.02;1.20;;;12.20;95.00;;;;;;4883089;29;20044;-67
2023/06/02 05:11:32;;;;;;;8.30;1.20;;;12.20;94.90;;;;;;4880076;29;20047;-68
2023/06/02 05:14:01;;;;;;;10.82;0.93;;;12.20;94.90;;;;;;4867967;29;20059;-68
2023/06/02 05:16:30;;;;;;;12.88;1.30;;;12.20;94.90;;;;;;4903033;29;20039;-67
2023/06/02 05:18:57;;;;;;;8.68;1.67;;;12.30;94.90;;;;;;4903753;29;20039;-67
2023/06/02 05:21:24;;;;;;;13.02;1.70;;;12.30;94.90;;;;;;4880319;29;20490;-67
2023/06/02 05:23:50;;;;;;;11.93;3.75;;;12.30;94.90;;;;;;4896440;29;20491;-67
2023/06/02 05:26:17;;;;;;;8.30;2.22;;;12.40;94.90;;;;;;4894493;29;20999;-67
2023/06/02 05:28:43;;;;;;;12.57;2.65;;;12.40;94.70;;;;;;4882597;29;20031;-66
2023/06/02 05:31:10;;;;;;;9.38;2.50;;;12.50;94.70;;;;;;4890515;29;20040;-68
2023/06/02 05:33:37;;;;;;;8.57;1.50;;;12.50;94.60;;;;;;4864876;29;20028;-67
2023/06/02 05:36:04;;;;;;;8.25;1.30;;;12.50;94.50;;;;;;4880769;29;20036;-67
2023/06/02 05:38:31;;;;;;;6.97;1.10;;;12.50;94.40;;;;;;4868686;29;20023;-67
2023/06/02 05:40:58;;;;;;;7.47;1.15;;;12.60;94.40;;;;;;4864135;29;20539;-68
2023/06/02 05:43:24;;;;;;;4.45;0.80;;;12.70;94.30;;;;;;4867640;29;20032;-67
2023/06/02 05:45:51;;;;;;;7.57;1.08;;;12.70;94.10;;;;;;4865846;29;20066;-67
2023/06/02 05:48:17;;;;;;;8.35;2.28;;;12.70;94.10;;;;;;4894994;29;20936;-66
2023/06/02 05:50:44;;;;;;;9.80;2.80;;;12.80;94.00;;;;;;4876912;29;20495;-67
2023/06/02 05:53:11;;;;;;;8.73;1.60;;;12.80;94.10;;;;;;4882023;29;20198;-67
2023/06/02 05:55:38;;;;;;;9.32;1.80;;;12.90;93.90;;;;;;4881626;29;20040;-67
2023/06/02 05:58:05;;;;;;;5.43;1.17;;;12.90;93.80;;;;;;4897799;29;20042;-67
2023/06/02 06:00:31;;;;;;;13.32;2.10;;;12.90;93.80;;;;;;4897672;29;20059;-66
2023/06/02 06:03:00;;;;;;;11.88;4.45;;;12.90;93.70;;;;;;4873886;29;20039;-67
2023/06/02 06:05:30;;;;;;;15.68;5.00;;;13.00;93.70;;;;;;4901859;29;20059;-66
2023/06/02 06:07:59;;;;;;;11.55;4.70;;;13.10;93.70;;;;;;4883673;29;20558;-66
2023/06/02 06:10:25;;;;;;;7.53;2.35;;;13.20;93.60;;;;;;4877502;29;20040;-66
2023/06/02 06:12:52;;;;;;;7.75;1.73;;;13.20;93.50;;;;;;4898532;29;20054;-66
2023/06/02 06:15:19;;;;;;;7.32;1.85;;;13.30;93.50;;;;;;4887272;29;20071;-67
2023/06/02 06:17:49;;;;;;;4.55;0.85;;;13.30;93.40;;;;;;4886150;29;20051;-68
2023/06/02 06:20:15;;;;;;;8.70;2.35;;;13.30;93.30;;;;;;4895754;29;20036;-68
2023/06/02 06:22:42;;;;;;;13.57;2.05;;;13.30;93.30;;;;;;4905814;29;20043;-74
2023/06/02 06:25:10;;;;;;;7.10;1.50;;;13.30;93.30;;;;;;4905695;29;20044;-70
2023/06/02 06:27:37;;;;;;;7.43;1.00;;;13.30;93.20;;;;;;4886641;29;20385;-72
2023/06/02 06:30:04;;;;;;;9.10;1.00;;;13.30;93.30;;;;;;4897285;29;20035;-73
2023/06/02 06:32:32;;;;;;;7.28;1.00;;;13.40;93.30;;;;;;4900050;29;20043;-72
2023/06/02 06:34:59;;;;;;;9.48;1.38;;;13.40;93.30;;;;;;4871614;29;20047;-69
2023/06/02 06:37:27;;;;;;;23.80;7.28;;;13.40;93.40;;;;;;4890690;29;20030;-69
2023/06/02 06:39:55;;;;;;;6.53;2.47;;;13.40;93.60;;;;;;4897789;29;20046;-69
2023/06/02 06:42:24;;;;;;;12.27;2.28;;;13.40;93.60;;;;;;4874156;29;20048;-68
2023/06/02 06:45:02;;;;;;;12.07;2.13;;;13.50;93.70;;;;;;4873069;29;20047;-69
2023/06/02 06:47:29;;;;;;;10.18;1.60;;;13.50;93.70;;;;;;4892363;29;20051;-69
2023/06/02 06:49:55;;;;;;;10.85;1.73;;;13.50;93.70;;;;;;4865578;29;20039;-69
2023/06/02 06:52:22;;;;;;;9.70;1.70;;;13.60;93.80;;;;;;4901246;29;20024;-69
2023/06/02 06:54:50;;;;;;;12.27;2.28;;;13.60;93.90;;;;;;4869866;29;20044;-69
2023/06/02 06:57:16;;;;;;;6.82;1.30;;;13.70;94.10;;;;;;4902280;29;20624;-69
2023/06/02 06:59:45;;;;;;;5.78;1.00;;;13.80;94.00;;;;;;4895857;29;20903;-68
2023/06/02 07:02:11;;;;;;;6.65;0.98;;;13.80;94.00;;;;;;4899918;29;20043;-69
2023/06/02 07:04:37;;;;;;;6.95;1.10;;;13.90;93.80;;;;;;4889311;29;20040;-68
2023/06/02 07:07:05;;;;;;;6.13;1.25;;;13.80;93.90;;;;;;4903974;29;20352;-68
2023/06/02 07:09:31;;;;;;;7.05;1.30;;;13.80;94.00;;;;;;4881007;29;20387;-68
2023/06/02 07:11:58;;;;;;;4.05;0.98;;;13.90;94.10;;;;;;4898904;29;23031;-68
2023/06/02 07:14:25;;;;;;;12.00;1.42;;;13.90;94.20;;;;;;4884321;29;20070;-69
2023/06/02 07:16:54;;;;;;;8.57;1.17;;;14.00;94.10;;;;;;4897709;29;20039;-68
2023/06/02 07:19:21;;;;;;;9.82;1.10;;;14.00;94.10;;;;;;4897167;29;20519;-68
2023/06/02 07:21:47;;;;;;;10.25;1.60;;;14.00;94.10;;;;;;4894028;29;21799;-68
2023/06/02 07:24:13;;;;;;;9.90;1.40;;;14.10;94.00;;;;;;4903700;29;20048;-68
2023/06/02 07:26:42;;;;;;;7.68;1.60;;;14.10;93.90;;;;;;4904458;29;20380;-68
2023/06/02 07:29:08;;;;;;;7.53;0.90;;;14.10;94.00;;;;;;4885134;29;20035;-68
2023/06/02 07:31:34;;;;;;;6.38;1.08;;;14.10;94.10;;;;;;4893071;29;20027;-69
2023/06/02 07:34:01;;;;;;;8.90;1.42;;;14.30;94.20;;;;;;4883187;29;20321;-68
2023/06/02 07:36:27;;;;;;;7.45;1.58;;;14.30;94.00;;;;;;4884958;29;20035;-68
2023/06/02 07:38:53;;;;;;;8.60;0.93;;;14.40;93.90;;;;;;4902095;29;20030;-68
2023/06/02 07:41:20;;;;;;;9.65;1.52;;;14.40;94.00;;;;;;4878380;29;20456;-68
2023/06/02 07:43:47;;;;;;;10.77;1.45;;;14.40;93.90;;;;;;4885395;29;20044;-68
2023/06/02 07:46:13;;;;;;;7.15;1.20;;;14.40;93.90;;;;;;4888789;29;20515;-69
2023/06/02 07:48:40;;;;;;;9.57;1.58;;;14.40;93.80;;;;;;4887986;29;20027;-68
2023/06/02 07:51:06;;;;;;;8.63;1.63;;;14.50;93.80;;;;;;4867191;29;20040;-69
2023/06/02 07:53:32;;;;;;;12.43;1.40;;;14.50;93.80;;;;;;4898977;29;20391;-69
2023/06/02 07:55:59;;;;;;;6.43;1.10;;;14.60;93.80;;;;;;4900788;29;20038;-69
2023/06/02 07:58:25;;;;;;;8.63;1.60;;;14.60;93.90;;;;;;4899251;29;20047;-68
2023/06/02 08:00:51;;;;;;;12.27;1.85;;;14.60;94.00;;;;;;4876770;29;20043;-68
2023/06/02 08:03:18;;;;;;;8.60;1.67;;;14.70;94.10;;;;;;4900834;29;20027;-68
2023/06/02 08:05:45;;;;;;;11.88;1.92;;;14.80;94.10;;;;;;4885988;29;20031;-68
2023/06/02 08:08:11;;;;;;;8.15;1.45;;;14.90;93.90;;;;;;4887543;29;20418;-69
2023/06/02 08:10:38;;;;;;;8.32;1.05;;;15.00;93.90;;;;;;4896840;29;20467;-69
2023/06/02 08:13:04;;;;;;;10.18;1.33;;;15.00;93.90;;;;;;4899790;29;20043;-68
2023/06/02 08:15:32;;;;;;;9.65;1.67;;;15.10;93.90;;;;;;4900717;28;20499;-69
2023/06/02 08:17:58;;;;;;;5.05;1.15;;;15.10;93.80;;;;;;4897389;29;20035;-68
2023/06/02 08:20:24;;;;;;;7.55;1.15;;;15.10;93.80;;;;;;4892021;29;20043;-68
2023/06/02 08:22:50;;;;;;;6.72;1.08;;;15.20;94.00;;;;;;4879774;29;20464;-68
2023/06/02 08:25:17;;;;;;;8.90;1.23;;;15.30;94.00;;;;;;4881978;29;20047;-68
2023/06/02 08:27:44;;;;;;;4.18;0.88;;;15.40;93.90;;;;;;4902511;29;20063;-69
2023/06/02 08:30:14;;;;;;;9.98;1.40;;;15.50;93.80;;;;;;4897536;29;20066;-69
2023/06/02 08:32:40;;;;;;;9.70;1.23;;;15.60;93.80;;;;;;4902350;29;20043;-68
2023/06/02 08:35:07;;;;;;;8.88;1.00;;;15.70;93.60;;;;;;4901850;29;20164;-69
2023/06/02 08:37:33;;;;;;;11.52;1.55;;;15.70;93.50;;;;;;4882125;29;20038;-69
2023/06/02 08:40:00;;;;;;;7.72;0.98;;;15.70;93.70;;;;;;4876034;29;20043;-68
2023/06/02 08:42:26;;;;;;;6.93;2.60;;;15.80;93.50;;;;;;4899573;29;20032;-68
2023/06/02 08:44:53;;;;;;;10.25;3.80;;;15.90;93.30;;;;;;4898830;29;20487;-68
2023/06/02 08:47:24;;;;;;;13.48;2.75;;;16.10;93.40;;;;;;4899483;29;20036;-69
2023/06/02 08:49:50;;;;;;;8.05;1.67;;;16.30;93.30;;;;;;4896905;29;20035;-68
2023/06/02 08:52:22;;;;;;;10.15;1.25;;;16.40;93.00;;;;;;4905525;29;20038;-68
2023/06/02 08:54:49;;;;;;;8.10;1.50;;;16.50;92.90;;;;;;4901956;29;20368;-66
2023/06/02 08:57:16;;;;;;;5.53;1.30;;;16.50;92.70;;;;;;4898508;29;20411;-66
2023/06/02 08:59:46;;;;;;;15.55;2.70;;;16.50;92.60;;;;;;4877694;29;20706;-67
2023/06/02 09:02:14;;;;;;;7.90;1.58;;;16.60;92.50;;;;;;4899059;29;20042;-67
2023/06/02 09:04:40;;;;;;;9.80;1.85;;;16.60;92.40;;;;;;4897087;29;20387;-66
2023/06/02 09:07:12;;;;;;;9.93;1.98;;;16.80;92.80;;;;;;4899318;29;20047;-66
2023/06/02 09:09:43;;;;;;;6.72;2.13;;;16.80;92.60;;;;;;4898742;29;20078;-66
2023/06/02 09:12:10;;;;;;;5.90;1.48;;;16.80;92.30;;;;;;4884918;29;20054;-67
2023/06/02 09:14:37;;;;;;;9.65;1.70;;;16.70;91.90;;;;;;4901892;29;20155;-67
2023/06/02 09:17:04;;;;;;;9.32;2.40;;;16.80;92.10;;;;;;4867254;29;20472;-68
2023/06/02 09:19:50;;;;;;;6.75;2.00;;;16.70;92.00;;;;;;4878933;29;20038;-66
2023/06/02 09:22:16;;;;;;;6.72;1.88;;;16.80;92.20;;;;;;4899655;29;20027;-67
2023/06/02 09:24:43;;;;;;;5.07;1.23;;;16.80;92.10;;;;;;4886807;29;20035;-67
2023/06/02 09:27:14;;;;;;;5.20;1.40;;;16.90;91.90;;;;;;4885956;29;20046;-67
2023/06/02 09:29:41;;;;;;;11.05;2.25;;;17.00;92.00;;;;;;4884543;29;20054;-66
2023/06/02 09:32:16;;;;;;;4.65;0.98;;;17.10;92.00;;;;;;4905414;29;20047;-68
2023/06/02 09:34:45;;;;;;;12.15;2.28;;;17.20;92.00;;;;;;4890369;29;20460;-67
2023/06/02 09:37:16;;;;;;;8.40;1.40;;;17.30;91.80;;;;;;4905502;29;20055;-67
2023/06/02 09:39:46;;;;;;;8.25;1.73;;;17.50;91.70;;;;;;4897727;29;20040;-67
2023/06/02 09:42:13;;;;;;;7.90;1.48;;;17.50;91.60;;;;;;4886750;29;20517;-68
2023/06/02 09:44:40;;;;;;;9.35;1.83;;;17.70;91.50;;;;;;4888463;29;20317;-67
2023/06/02 09:47:27;;;;;;;9.65;2.00;;;17.80;91.20;;;;;;4901566;28;20060;-67
2023/06/02 09:49:53;;;;;;;8.77;1.80;;;17.80;91.00;;;;;;4896274;29;20044;-67
2023/06/02 09:52:20;;;;;;;5.90;1.10;;;17.90;91.20;;;;;;4905156;29;20067;-67
2023/06/02 09:54:48;;;;;;;7.57;1.75;;;18.10;91.10;;;;;;4904944;29;20043;-67
2023/06/02 09:57:16;;;;;;;5.85;1.23;;;18.20;90.90;;;;;;4907013;29;20047;-67
2023/06/02 09:59:45;;;;;;;8.07;2.30;;;18.40;90.80;;;;;;4899916;29;20472;-69
2023/06/02 10:02:12;;;;;;;18.05;7.90;;;18.50;90.70;;;;;;4883023;29;20030;-67
2023/06/02 10:04:38;;;;;;;13.00;5.93;;;18.60;90.70;;;;;;4902520;29;20032;-71
2023/06/02 10:07:34;;;;;;;9.20;2.90;;;18.70;90.50;;;;;;4902452;29;20028;-67
2023/06/02 10:10:13;;;;;;;8.73;2.10;;;18.90;90.50;;;;;;4896898;29;20472;-67
2023/06/02 10:13:01;;;;;;;7.60;2.42;;;18.90;90.10;;;;;;4900938;29;20036;-67
2023/06/02 10:15:33;;;;;;;9.18;3.67;;;18.90;89.90;;;;;;4888961;29;20047;-67
2023/06/02 10:18:37;;;;;;;7.75;2.00;;;18.90;90.00;;;;;;4876877;29;20052;-67
2023/06/02 10:21:15;;;;;;;12.25;2.60;;;19.00;89.40;;;;;;4868359;29;20056;-67
2023/06/02 10:24:15;;;;;;;12.90;3.17;;;19.10;89.10;;;;;;4884543;29;20050;-67
2023/06/02 10:27:05;;;;;;;7.72;1.50;;;19.20;88.60;;;;;;4900874;29;20055;-67
2023/06/02 10:29:33;;;;;;;8.77;2.08;;;19.10;89.00;;;;;;4898807;29;20661;-67
2023/06/02 10:32:16;;;;;;;9.30;2.50;;;19.20;89.10;;;;;;4882048;29;20043;-67
2023/06/02 10:34:42;;;;;;;10.65;2.80;;;19.40;88.90;;;;;;4902306;29;20475;-67
2023/06/02 10:37:13;;;;;;;10.25;1.88;;;19.40;88.80;;;;;;4889295;29;20039;-68
2023/06/02 10:39:42;;;;;;;8.30;2.10;;;19.50;88.50;;;;;;4901270;29;20035;-67
2023/06/02 10:42:16;;;;;;;10.30;2.15;;;19.50;88.50;;;;;;4886963;29;20094;-68
2023/06/02 10:44:43;;;;;;;9.50;1.70;;;19.60;88.00;;;;;;4901378;29;20039;-67
2023/06/02 10:47:19;;;;;;;8.98;2.30;;;19.60;87.70;;;;;;4900917;29;20040;-67
2023/06/02 10:49:58;;;;;;;6.38;1.90;;;19.60;87.60;;;;;;4863333;29;20411;-67
2023/06/02 10:52:31;;;;;;;10.85;2.75;;;19.50;87.80;;;;;;4901473;29;20464;-67
2023/06/02 10:55:07;;;;;;;7.60;1.98;;;19.50;87.60;;;;;;4869327;29;22243;-68
2023/06/02 10:57:58;;;;;;;10.98;3.30;;;19.70;87.20;;;;;;4885320;29;20059;-68
2023/06/02 11:00:39;;;;;;;10.05;2.38;;;19.70;87.00;;;;;;4880143;29;20451;-68
2023/06/02 11:03:17;;;;;;;9.70;2.55;;;19.70;86.90;;;;;;4905777;29;20044;-68
2023/06/02 11:05:45;;;;;;;5.63;1.67;;;19.60;86.90;;;;;;4898621;29;20047;-67
2023/06/02 11:08:12;;;;;;;4.57;1.63;;;19.60;87.00;;;;;;4901241;29;20036;-67
2023/06/02 11:10:49;;;;;;;10.25;3.40;;;19.70;87.10;;;;;;4892205;29;20297;-68
2023/06/02 11:13:17;;;;;;;11.88;2.88;;;19.90;87.10;;;;;;4883067;29;20027;-67
2023/06/02 11:15:58;;;;;;;10.15;2.88;;;20.00;86.60;;;;;;4899063;29;20058;-67
2023/06/02 11:18:26;;;;;;;10.23;2.20;;;20.10;87.30;;;;;;4904670;29;20250;-67
2023/06/02 11:20:54;;;;;;;5.32;1.35;;;20.10;86.50;;;;;;4883377;29;20043;-68
2023/06/02 11:23:21;;;;;;;6.93;2.00;;;20.10;86.20;;;;;;4887924;29;20032;-67
2023/06/02 11:25:49;;;;;;;6.75;1.70;;;20.00;86.60;;;;;;4903406;29;20028;-67
2023/06/02 11:28:24;;;;;;;8.65;2.00;;;20.30;86.80;;;;;;4899568;29;20533;-67
2023/06/02 11:31:11;;;;;;;8.43;2.00;;;20.60;86.20;;;;;;4894614;29;20062;-67
2023/06/02 11:33:42;;;;;;;8.90;2.47;;;20.60;85.90;;;;;;4898505;29;20044;-67
2023/06/02 11:36:11;;;;;;;10.80;2.07;;;20.80;86.40;;;;;;4898113;29;20513;-68
2023/06/02 11:38:38;;;;;;;8.45;1.73;;;21.40;85.30;;;;;;4899737;29;20047;-67
2023/06/02 11:41:12;;;;;;;9.90;2.80;;;21.60;84.00;;;;;;4898067;29;20031;-68
2023/06/02 11:43:44;;;;;;;12.23;2.88;;;21.70;83.70;;;;;;4904918;29;22014;-68
2023/06/02 11:46:16;;;;;;;8.20;1.88;;;21.90;82.70;;;;;;4886077;29;20046;-67
2023/06/02 11:48:43;;;;;;;6.70;2.03;;;22.10;82.50;;;;;;4899208;29;20039;-67
2023/06/02 11:51:13;;;;;;;8.05;1.80;;;22.10;82.20;;;;;;4875414;29;20047;-67
2023/06/02 11:53:46;;;;;;;8.05;2.38;;;22.00;81.90;;;;;;4900741;29;20051;-67
2023/06/02 11:56:13;;;;;;;10.68;3.65;;;22.00;82.40;;;;;;4897783;29;20742;-67
2023/06/02 11:58:41;;;;;;;9.35;2.20;;;22.20;81.50;;;;;;4882600;29;20039;-68
2023/06/02 12:01:18;;;;;;;8.02;1.85;;;22.30;81.20;;;;;;4895256;29;20036;-67
2023/06/02 12:03:53;;;;;;;8.27;2.00;;;22.40;81.20;;;;;;4904315;29;20035;-68
2023/06/02 12:06:21;;;;;;;7.95;2.42;;;22.60;80.00;;;;;;4903869;29;20051;-67
2023/06/02 12:08:47;;;;;;;7.20;1.83;;;22.70;79.50;;;;;;4887229;29;20383;-68
2023/06/02 12:11:17;;;;;;;8.05;2.35;;;22.80;79.70;;;;;;4891604;29;20058;-67
2023/06/02 12:14:01;;;;;;;10.35;2.45;;;22.90;79.80;;;;;;4883001;29;20043;-68
2023/06/02 12:16:28;;;;;;;7.95;1.80;;;22.80;79.30;;;;;;4898110;29;20043;-68
2023/06/02 12:19:10;;;;;;;4.43;1.52;;;22.70;79.40;;;;;;4900022;29;20411;-67
2023/06/02 12:21:39;;;;;;;7.38;2.05;;;22.70;79.40;;;;;;4892695;29;20517;-68
2023/06/02 12:24:05;;;;;;;8.77;2.72;;;22.80;79.20;;;;;;4886350;29;20292;-67
2023/06/02 12:26:42;;;;;;;10.20;3.28;;;22.70;78.90;;;;;;4904503;29;20078;-67
2023/06/02 12:29:10;;;;;;;8.90;2.58;;;22.60;79.50;;;;;;4902810;29;20036;-67
2023/06/02 12:31:37;;;;;;;9.98;2.63;;;23.00;79.30;;;;;;4893000;29;20224;-67
2023/06/02 12:34:07;;;;;;;11.93;3.00;;;23.20;78.40;;;;;;4899088;29;20367;-68
2023/06/02 12:36:35;;;;;;;7.75;2.17;;;23.00;77.80;;;;;;4865221;29;20046;-68
2023/06/02 12:39:04;;;;;;;8.27;3.10;;;22.80;78.30;;;;;;4895531;29;20051;-67
2023/06/02 12:41:31;;;;;;;9.68;3.20;;;22.60;77.90;;;;;;4874969;29;20035;-68
2023/06/02 12:43:58;;;;;;;7.65;2.10;;;22.30;78.90;;;;;;4865272;29;20040;-67
2023/06/02 12:46:26;;;;;;;9.88;2.55;;;22.40;79.50;;;;;;4900549;29;20391;-67
2023/06/02 12:48:53;;;;;;;6.97;2.17;;;22.70;79.60;;;;;;4903238;29;20392;-67
2023/06/02 12:51:20;;;;;;;7.25;2.13;;;23.40;78.60;;;;;;4879944;29;20036;-67
2023/06/02 12:53:46;;;;;;;6.50;2.22;;;23.60;78.40;;;;;;4880322;29;20040;-68